createdAt,value
2023-02-05T00:03:47.295Z,1.08
2023-02-05T00:08:49.968Z,1.04
2023-02-05T00:13:54.066Z,1.24
2023-02-05T00:18:57.694Z,1.22
2023-02-05T00:24:00.537Z,1.22
2023-02-05T00:29:05.056Z,1.20
2023-02-05T00:34:07.761Z,1.14
2023-02-05T00:39:11.419Z,1.08
2023-02-05T00:44:16.100Z,1.23
2023-02-05T00:49:19.969Z,1.27
2023-02-05T00:54:22.764Z,1.15
2023-02-05T00:59:26.946Z,1.20
2023-02-05T01:04:29.702Z,1.23
2023-02-05T01:09:32.443Z,1.22
2023-02-05T01:14:36.537Z,1.28
2023-02-05T01:19:39.271Z,1.19
2023-02-05T01:24:42.011Z,1.17
2023-02-05T01:29:46.240Z,1.23
2023-02-05T01:34:48.963Z,1.24
2023-02-05T01:39:51.779Z,1.22
2023-02-05T01:45:32.645Z,1.25
2023-02-05T01:50:39.972Z,1.38
2023-02-05T01:55:46.571Z,1.25
2023-02-05T02:00:49.416Z,1.34
2023-02-05T02:05:53.450Z,1.38
2023-02-05T02:10:58.245Z,1.39
2023-02-05T02:16:01.405Z,1.41
2023-02-05T02:21:28.108Z,1.43
2023-02-05T02:26:43.774Z,1.34
2023-02-05T02:31:52.649Z,1.30
2023-02-05T02:36:59.482Z,1.43
2023-02-05T02:42:04.802Z,1.49
2023-02-05T02:47:13.694Z,1.56
2023-02-05T02:52:18.839Z,1.60
2023-02-05T02:57:24.208Z,1.60
2023-02-05T03:02:30.254Z,1.64
2023-02-05T03:07:35.228Z,1.71
2023-02-05T03:12:38.790Z,1.70
2023-02-05T03:17:43.925Z,1.72
2023-02-05T03:22:46.701Z,1.79
2023-02-05T03:27:50.256Z,1.88
2023-02-05T03:33:02.455Z,1.76
2023-02-05T03:38:24.092Z,1.78
2023-02-05T03:43:34.060Z,1.79
2023-02-05T03:48:45.079Z,1.90
2023-02-05T03:53:56.779Z,1.88
2023-02-05T03:59:01.193Z,1.84
2023-02-05T04:04:05.678Z,1.85
2023-02-05T04:09:08.825Z,1.87
2023-02-05T04:14:12.044Z,1.90
2023-02-05T04:19:18.323Z,1.93
2023-02-05T04:24:23.624Z,1.96
2023-02-05T04:29:26.538Z,1.91
2023-02-05T04:34:30.926Z,1.94
2023-02-05T04:39:35.505Z,1.81
2023-02-05T04:44:38.205Z,1.92
2023-02-05T04:49:42.224Z,1.96
2023-02-05T04:54:44.948Z,1.92
2023-02-05T04:59:47.634Z,1.90
2023-02-05T05:04:51.720Z,1.75
2023-02-05T05:09:54.437Z,1.74
2023-02-05T05:14:57.128Z,1.87
2023-02-05T05:20:01.248Z,1.96
2023-02-05T05:25:03.995Z,2.00
2023-02-05T05:30:07.349Z,1.89
2023-02-05T05:35:11.389Z,1.99
2023-02-05T05:40:31.443Z,1.96
2023-02-05T05:45:34.454Z,2.05
2023-02-05T05:50:38.673Z,2.10
2023-02-05T05:55:42.517Z,2.19
2023-02-05T06:00:45.605Z,2.19
2023-02-05T06:05:50.007Z,2.15
2023-02-05T06:10:52.770Z,2.11
2023-02-05T06:15:55.732Z,2.19
2023-02-05T06:20:59.801Z,2.19
2023-02-05T06:26:02.512Z,2.18
2023-02-05T06:31:05.591Z,2.18
2023-02-05T06:36:10.235Z,2.04
2023-02-05T06:41:12.924Z,2.23
2023-02-05T06:46:15.746Z,2.24
2023-02-05T06:51:20.796Z,2.36
2023-02-05T06:56:23.451Z,2.40
2023-02-05T07:01:26.460Z,2.40
2023-02-05T07:06:30.540Z,2.49
2023-02-05T07:11:33.535Z,2.47
2023-02-05T07:16:36.238Z,2.45
2023-02-05T07:21:40.298Z,2.57
2023-02-05T07:26:45.148Z,2.59
2023-02-05T07:31:47.886Z,2.61
2023-02-05T07:36:52.520Z,2.61
2023-02-05T07:41:55.292Z,2.57
2023-02-05T07:47:06.595Z,2.65
2023-02-05T07:52:10.708Z,2.71
2023-02-05T07:57:13.413Z,2.81
2023-02-05T08:02:16.263Z,2.80
2023-02-05T08:07:20.358Z,2.86
2023-02-05T08:12:23.311Z,2.91
2023-02-05T08:17:26.055Z,2.92
2023-02-05T08:22:30.093Z,5.54
2023-02-05T08:27:33.184Z,4.56
2023-02-05T08:32:36.138Z,5.73
2023-02-05T08:37:40.250Z,6.20
2023-02-05T08:42:42.933Z,6.29
2023-02-05T08:47:45.651Z,7.22
2023-02-05T08:52:50.653Z,6.88
2023-02-05T08:57:53.392Z,7.04
2023-02-05T09:02:56.071Z,6.80
2023-02-05T09:08:00.200Z,4.51
2023-02-05T09:13:02.919Z,4.95
2023-02-05T09:18:05.645Z,4.22
2023-02-05T09:23:10.818Z,4.11
2023-02-05T09:28:15.096Z,4.19
2023-02-05T09:33:17.948Z,4.29
2023-02-05T09:38:21.997Z,4.23
2023-02-05T09:43:33.074Z,4.32
2023-02-05T09:48:50.322Z,4.30
2023-02-05T09:53:57.643Z,4.25
2023-02-05T09:59:00.951Z,4.33
2023-02-05T10:04:06.170Z,4.48
2023-02-05T10:09:20.374Z,4.46
2023-02-05T10:14:27.929Z,4.60
2023-02-05T10:19:48.736Z,4.69
2023-02-05T10:25:14.901Z,4.78
2023-02-05T10:30:23.058Z,4.80
2023-02-05T10:35:30.550Z,4.78
2023-02-05T10:40:39.239Z,4.89
2023-02-05T10:45:41.973Z,4.91
2023-02-05T10:50:51.638Z,4.89
2023-02-05T10:55:56.235Z,4.85
2023-02-05T11:00:59.366Z,4.87
2023-02-05T11:06:03.425Z,4.80
2023-02-05T11:11:08.999Z,4.82
2023-02-05T11:16:12.536Z,4.75
2023-02-05T11:21:15.319Z,4.72
2023-02-05T11:26:22.176Z,4.72
2023-02-05T11:31:27.004Z,4.70
2023-02-05T11:36:30.069Z,4.53
2023-02-05T11:41:47.980Z,4.63
2023-02-05T11:46:56.712Z,4.75
2023-02-05T11:51:59.796Z,4.73
2023-02-05T11:57:09.041Z,4.90
2023-02-05T12:02:31.816Z,4.99
2023-02-05T12:07:39.039Z,4.94
2023-02-05T12:12:47.176Z,5.09
2023-02-05T12:17:53.970Z,5.26
2023-02-05T12:23:17.069Z,4.91
2023-02-05T12:28:31.908Z,4.95
2023-02-05T12:33:56.405Z,4.99
2023-02-05T12:39:08.313Z,4.99
2023-02-05T12:44:24.233Z,4.79
2023-02-05T12:49:39.716Z,4.86
2023-02-05T12:54:57.929Z,4.77
2023-02-05T13:00:06.798Z,4.69
2023-02-05T13:05:15.322Z,4.84
2023-02-05T13:10:20.718Z,4.93
2023-02-05T13:15:28.669Z,4.83
2023-02-05T13:20:51.795Z,4.81
2023-02-05T13:26:13.989Z,4.84
2023-02-05T13:31:22.463Z,4.93
2023-02-05T13:37:17.007Z,4.86
2023-02-05T13:42:58.287Z,4.72
2023-02-05T13:48:30.259Z,4.81
2023-02-05T13:53:45.626Z,4.76
2023-02-05T13:58:50.941Z,4.87
2023-02-05T14:03:58.069Z,4.78
2023-02-05T14:09:04.033Z,4.80
2023-02-05T14:14:31.871Z,4.85
2023-02-05T14:20:06.012Z,4.83
2023-02-05T14:25:47.680Z,4.72
2023-02-05T14:30:52.193Z,4.70
2023-02-05T14:35:58.108Z,4.67
2023-02-05T14:41:03.998Z,4.75
2023-02-05T14:46:08.414Z,4.73
2023-02-05T14:51:20.113Z,4.63
2023-02-05T14:56:25.877Z,4.70
2023-02-05T15:01:46.331Z,4.61
2023-02-05T15:06:50.867Z,4.63
2023-02-05T15:12:09.660Z,4.67
2023-02-05T15:17:44.458Z,4.62
2023-02-05T15:22:52.305Z,4.65
2023-02-05T15:27:57.196Z,4.76
2023-02-05T15:33:02.209Z,4.72
2023-02-05T15:38:24.842Z,4.79
2023-02-05T15:43:28.503Z,4.68
2023-02-05T15:48:32.557Z,4.71
2023-02-05T15:53:38.250Z,4.64
2023-02-05T15:58:42.557Z,4.68
2023-02-05T16:03:45.323Z,4.66
2023-02-05T16:08:51.388Z,4.69
2023-02-05T16:14:03.194Z,4.70
2023-02-05T16:19:08.878Z,4.70
2023-02-05T16:24:23.493Z,4.71
2023-02-05T16:29:36.076Z,4.73
2023-02-05T16:34:47.078Z,4.50
2023-02-05T16:39:54.425Z,4.50
2023-02-05T16:45:22.167Z,4.54
2023-02-05T16:50:37.126Z,4.40
2023-02-05T16:55:43.647Z,4.49
2023-02-05T17:00:54.520Z,4.39
2023-02-05T17:05:59.721Z,4.40
2023-02-05T17:11:06.045Z,4.30
2023-02-05T17:16:26.913Z,4.41
2023-02-05T17:21:31.235Z,4.41
2023-02-05T17:26:38.879Z,4.43
2023-02-05T17:31:41.690Z,4.30
2023-02-05T17:36:44.454Z,4.32
2023-02-05T17:42:07.719Z,4.29
2023-02-05T17:47:10.815Z,4.32
2023-02-05T17:52:15.309Z,4.30
2023-02-05T17:57:21.348Z,4.26
2023-02-05T18:02:24.050Z,4.28
2023-02-05T18:07:31.199Z,4.06
2023-02-05T18:12:35.481Z,4.08
2023-02-05T18:17:38.271Z,4.11
2023-02-05T18:22:41.048Z,3.96
2023-02-05T18:27:45.267Z,3.95
2023-02-05T18:32:48.047Z,3.92
2023-02-05T18:37:50.746Z,3.98
2023-02-05T18:42:55.946Z,4.03
2023-02-05T18:48:01.070Z,4.02
2023-02-05T18:53:04.118Z,4.01
2023-02-05T18:58:08.262Z,3.94
2023-02-05T19:03:11.313Z,3.95
2023-02-05T19:08:14.051Z,3.99
2023-02-05T19:13:18.262Z,4.05
2023-02-05T19:18:20.955Z,3.99
2023-02-05T19:23:23.786Z,4.01
2023-02-05T19:28:27.949Z,4.03
2023-02-05T19:33:31.670Z,3.99
2023-02-05T19:38:35.890Z,3.84
2023-02-05T19:43:40.461Z,3.90
2023-02-05T19:48:43.209Z,3.86
2023-02-05T19:53:47.460Z,3.82
2023-02-05T19:58:53.585Z,3.82
2023-02-05T20:03:56.749Z,3.80
2023-02-05T20:09:01.186Z,3.78
2023-02-05T20:14:05.518Z,3.67
2023-02-05T20:19:10.130Z,3.76
2023-02-05T20:24:12.903Z,3.80
2023-02-05T20:29:34.778Z,3.70
2023-02-05T20:34:40.660Z,3.55
2023-02-05T20:39:44.727Z,3.59
2023-02-05T20:44:48.799Z,3.61
2023-02-05T20:49:51.483Z,3.76
2023-02-05T20:54:54.899Z,3.66
2023-02-05T20:59:58.981Z,3.74
2023-02-05T21:05:01.685Z,3.75
2023-02-05T21:10:05.698Z,3.77
2023-02-05T21:15:10.288Z,3.70
2023-02-05T21:20:13.235Z,3.82
2023-02-05T21:25:17.069Z,3.79
2023-02-05T21:30:21.505Z,3.64
2023-02-05T21:35:24.284Z,3.66
2023-02-05T21:40:26.992Z,3.67
2023-02-05T21:45:31.191Z,3.54
2023-02-05T21:50:34.133Z,3.45
2023-02-05T21:55:37.035Z,3.32
2023-02-05T22:00:41.150Z,3.43
2023-02-05T22:05:43.868Z,3.52
2023-02-05T22:10:46.527Z,3.49
2023-02-05T22:15:50.980Z,3.51
2023-02-05T22:20:53.653Z,3.63
2023-02-05T22:25:56.346Z,3.69
2023-02-05T22:31:02.324Z,3.65
2023-02-05T22:36:05.836Z,3.62
2023-02-05T22:41:09.058Z,3.64
2023-02-05T22:46:14.674Z,3.46
2023-02-05T22:51:20.430Z,3.47
2023-02-05T22:56:23.593Z,3.41
2023-02-05T23:01:31.327Z,3.22
2023-02-05T23:06:35.604Z,3.32
2023-02-05T23:11:38.525Z,3.11
2023-02-05T23:16:45.134Z,3.24
2023-02-05T23:21:48.520Z,3.17
2023-02-05T23:26:53.367Z,2.99
2023-02-05T23:31:57.788Z,3.01
2023-02-05T23:37:00.509Z,2.96
2023-02-05T23:42:03.431Z,2.70
2023-02-05T23:47:07.453Z,2.67
2023-02-05T23:52:10.190Z,2.47
2023-02-05T23:57:12.881Z,2.29
